Time;durP1;ratioP1;P1;durP2;ratioP2;P2;SDS_P1;SDS_P2;PMS_P1;PMS_P2;Temp;Humidity;BMP_temperature;BMP_pressure;BME280_temperature;BME280_humidity;BME280_pressure;Samples;Min_cycle;Max_cycle;Signal;HPM_P1;HPM_P2
2021/12/22 00:01:42;;;;;;;0.20;0.10;;;;;;;-5.25;100.00;101270.22;5065118;28;20501;-48
2021/12/22 00:04:09;;;;;;;0.20;0.20;;;;;;;-5.10;100.00;101270.97;5061856;28;20454;-49
2021/12/22 00:06:37;;;;;;;0.20;0.10;;;;;;;-5.01;100.00;101273.16;5064936;28;20826;-50
2021/12/22 00:09:05;;;;;;;0.20;0.10;;;;;;;-5.14;100.00;101274.25;5068622;28;20462;-49
2021/12/22 00:11:32;;;;;;;0.20;0.10;;;;;;;-5.11;100.00;101275.28;5065976;28;20854;-49
2021/12/22 00:13:59;;;;;;;0.20;0.20;;;;;;;-5.02;100.00;101289.50;5061727;28;20450;-48
2021/12/22 00:16:26;;;;;;;0.20;0.10;;;;;;;-4.86;100.00;101281.69;5064147;28;20939;-48
2021/12/22 00:18:53;;;;;;;0.20;0.10;;;;;;;-4.91;100.00;101291.84;5067229;28;20940;-48
2021/12/22 00:21:20;;;;;;;0.20;0.10;;;;;;;-4.97;100.00;101294.09;5066041;28;20486;-49
2021/12/22 00:23:47;;;;;;;0.20;0.10;;;;;;;-5.07;100.00;101300.56;5061595;28;20446;-49
2021/12/22 00:26:15;;;;;;;2.10;2.00;;;;;;;-5.09;100.00;101293.47;5063234;28;20481;-48
2021/12/22 00:28:42;;;;;;;0.20;0.10;;;;;;;-5.17;100.00;101294.81;5067980;28;20478;-49
2021/12/22 00:31:12;;;;;;;1.90;1.07;;;;;;;-5.29;100.00;101299.38;5043383;28;20448;-48
2021/12/22 00:33:47;;;;;;;0.20;0.20;;;;;;;-5.41;100.00;101294.44;5067565;28;20443;-48
2021/12/22 00:36:16;;;;;;;0.20;0.10;;;;;;;-5.34;100.00;101293.06;5055253;28;20439;-51
2021/12/22 00:38:43;;;;;;;0.20;0.10;;;;;;;-5.26;100.00;101292.63;5067325;28;20535;-48
2021/12/22 00:41:09;;;;;;;0.20;0.10;;;;;;;-5.33;100.00;101285.38;5066541;28;20509;-48
2021/12/22 00:43:36;;;;;;;3.40;1.53;;;;;;;-5.47;100.00;101283.78;5066988;28;20793;-49
2021/12/22 00:46:04;;;;;;;0.20;0.20;;;;;;;-5.50;100.00;101283.59;5066579;28;20450;-48
2021/12/22 00:48:32;;;;;;;0.20;0.10;;;;;;;-5.55;100.00;101283.38;5062458;28;20702;-48
2021/12/22 00:50:59;;;;;;;0.20;0.10;;;;;;;-5.55;100.00;101293.72;5060836;28;20446;-49
2021/12/22 00:53:26;;;;;;;1.20;1.20;;;;;;;-5.59;100.00;101289.22;5066084;28;20459;-48
2021/12/22 00:55:52;;;;;;;0.20;0.10;;;;;;;-5.49;100.00;101298.34;5067920;28;20446;-48
2021/12/22 00:58:20;;;;;;;0.97;0.70;;;;;;;-5.48;100.00;101292.34;5062800;28;21047;-48
2021/12/22 01:00:49;;;;;;;0.20;0.10;;;;;;;-5.51;100.00;101295.66;5060539;28;20446;-49
2021/12/22 01:03:17;;;;;;;0.20;0.10;;;;;;;-5.44;100.00;101302.97;5065109;28;20500;-49
2021/12/22 01:05:44;;;;;;;0.20;0.10;;;;;;;-5.38;100.00;101298.06;5070734;28;20529;-49
2021/12/22 01:08:11;;;;;;;0.47;0.47;;;;;;;-5.44;100.00;101296.88;5067663;28;20466;-50
2021/12/22 01:10:38;;;;;;;0.20;0.13;;;;;;;-5.66;100.00;101303.53;5048065;28;21010;-48
2021/12/22 01:13:06;;;;;;;0.20;0.10;;;;;;;-5.59;100.00;101301.28;5067503;28;20507;-48
2021/12/22 01:15:35;;;;;;;0.20;0.20;;;;;;;-5.54;100.00;101298.09;5062141;28;20461;-49
2021/12/22 01:18:11;;;;;;;0.20;0.10;;;;;;;-5.61;100.00;101306.38;5063975;28;20463;-48
2021/12/22 01:24:01;;;;;;;0.77;0.77;;;;;;;-5.70;100.00;101305.88;5039951;28;20492;-48
2021/12/22 01:26:31;;;;;;;0.50;0.50;;;;;;;-5.85;100.00;101318.91;5060571;28;20449;-49
2021/12/22 01:28:59;;;;;;;0.20;0.10;;;;;;;-5.68;100.00;101315.50;5048001;28;20446;-48
2021/12/22 01:31:25;;;;;;;0.20;0.10;;;;;;;-5.53;100.00;101306.75;5060242;28;21013;-48
2021/12/22 01:33:52;;;;;;;0.20;0.10;;;;;;;-5.74;100.00;101314.31;5066182;28;20516;-49
2021/12/22 01:36:19;;;;;;;0.20;0.10;;;;;;;-5.50;100.00;101312.09;5054621;28;20940;-49
2021/12/22 01:38:46;;;;;;;0.20;0.20;;;;;;;-5.73;100.00;101324.75;5065392;28;20477;-48
2021/12/22 01:41:12;;;;;;;0.20;0.10;;;;;;;-5.60;100.00;101320.22;5065657;28;20458;-49
2021/12/22 01:43:39;;;;;;;0.20;0.10;;;;;;;-5.55;100.00;101324.81;5065900;28;20455;-48
2021/12/22 01:46:31;;;;;;;0.20;0.10;;;;;;;-5.51;100.00;101325.84;5066611;28;20503;-48
2021/12/22 01:49:12;;;;;;;0.20;0.10;;;;;;;-5.61;100.00;101321.03;5064964;28;20939;-48
2021/12/22 01:52:05;;;;;;;0.20;0.20;;;;;;;-5.77;100.00;101319.28;5064913;28;20439;-48
2021/12/22 01:54:46;;;;;;;0.20;0.10;;;;;;;-5.79;100.00;101321.81;5066738;28;20461;-48
2021/12/22 01:57:14;;;;;;;0.20;0.10;;;;;;;-6.07;100.00;101327.22;5064941;28;20527;-48
2021/12/22 01:59:44;;;;;;;0.20;0.10;;;;;;;-5.59;100.00;101319.41;5059988;28;20493;-48
2021/12/22 02:02:12;;;;;;;1.07;1.07;;;;;;;-5.40;100.00;101323.00;5060378;28;20489;-49
2021/12/22 02:04:41;;;;;;;0.20;0.10;;;;;;;-5.23;100.00;101339.41;5060738;28;20493;-49
2021/12/22 02:07:09;;;;;;;0.20;0.10;;;;;;;-5.50;100.00;101331.09;5059587;28;20918;-48
2021/12/22 02:12:18;;;;;;;0.20;0.10;;;;;;;-5.61;100.00;101333.97;5066775;28;20500;-48
2021/12/22 02:14:45;;;;;;;0.20;0.10;;;;;;;-5.64;100.00;101347.63;5063301;28;20505;-48
2021/12/22 02:17:13;;;;;;;0.20;0.10;;;;;;;-5.80;100.00;101340.72;5056586;28;20474;-49
2021/12/22 02:19:44;;;;;;;0.20;0.10;;;;;;;-5.71;100.00;101346.41;5062251;28;20446;-48
2021/12/22 02:22:14;;;;;;;0.20;0.10;;;;;;;-5.38;100.00;101347.28;5059355;28;20498;-49
2021/12/22 02:24:56;;;;;;;0.20;0.10;;;;;;;-5.75;100.00;101351.34;5061777;28;20443;-49
2021/12/22 02:27:33;;;;;;;0.20;0.10;;;;;;;-5.70;100.00;101343.00;5060298;28;20466;-48
2021/12/22 02:30:04;;;;;;;0.20;0.10;;;;;;;-5.87;100.00;101342.94;5059578;28;20469;-48
2021/12/22 02:35:15;;;;;;;0.20;0.10;;;;;;;-5.82;100.00;101325.94;5065562;28;20492;-48
2021/12/22 02:37:44;;;;;;;0.20;0.10;;;;;;;-5.70;100.00;101324.00;5065471;28;20477;-48
2021/12/22 02:40:16;;;;;;;0.20;0.10;;;;;;;-5.75;100.00;101322.88;5058582;28;20456;-50
2021/12/22 02:42:45;;;;;;;0.20;0.10;;;;;;;-5.77;100.00;101327.94;5070125;28;20493;-48
2021/12/22 02:45:16;;;;;;;0.20;0.10;;;;;;;-5.74;100.00;101330.72;5060056;28;20450;-48
2021/12/22 02:47:43;;;;;;;0.20;0.10;;;;;;;-5.72;100.00;101331.69;5059037;28;20467;-49
2021/12/22 02:50:11;;;;;;;0.20;0.10;;;;;;;-5.84;99.73;101327.56;5056207;28;20451;-48
2021/12/22 02:52:55;;;;;;;0.50;0.50;;;;;;;-5.86;99.93;101327.47;5061084;28;20450;-48
2021/12/22 02:55:29;;;;;;;0.20;0.10;;;;;;;-5.92;100.00;101322.00;5063725;28;20930;-48
2021/12/22 02:58:00;;;;;;;0.20;0.10;;;;;;;-6.00;100.00;101328.47;5059003;28;20531;-48
2021/12/22 03:06:08;;;;;;;0.20;0.10;;;;;;;-6.09;100.00;101320.19;5044390;28;20481;-48
2021/12/22 03:08:35;;;;;;;0.20;0.10;;;;;;;-6.13;100.00;101319.13;5059738;28;20467;-52
2021/12/22 03:11:01;;;;;;;0.20;0.10;;;;;;;-6.18;100.00;101317.97;5047106;28;20485;-50
2021/12/22 03:13:30;;;;;;;0.30;0.30;;;;;;;-6.13;100.00;101326.00;5061499;28;20848;-52
2021/12/22 03:15:58;;;;;;;4.10;2.13;;;;;;;-6.14;100.00;101321.66;5069107;28;20450;-48
2021/12/22 03:18:24;;;;;;;0.20;0.10;;;;;;;-6.07;100.00;101318.56;5071929;28;20505;-49
2021/12/22 03:21:00;;;;;;;0.20;0.10;;;;;;;-6.13;100.00;101328.59;5061759;28;20961;-48
2021/12/22 03:23:27;;;;;;;0.20;0.10;;;;;;;-6.20;100.00;101332.53;5043445;28;20915;-48
2021/12/22 03:25:54;;;;;;;0.20;0.10;;;;;;;-6.19;100.00;101325.66;5061279;28;20445;-49
2021/12/22 03:28:20;;;;;;;0.20;0.10;;;;;;;-6.14;100.00;101316.47;5057473;28;20523;-48
2021/12/22 03:30:48;;;;;;;0.20;0.10;;;;;;;-6.16;100.00;101311.22;5062980;28;20520;-48
2021/12/22 03:33:15;;;;;;;0.20;0.10;;;;;;;-6.33;99.97;101317.13;5065690;28;20503;-48
2021/12/22 03:35:41;;;;;;;0.20;0.10;;;;;;;-6.23;100.00;101323.72;5052434;28;20504;-48
2021/12/22 03:38:08;;;;;;;0.10;0.10;;;;;;;-6.08;100.00;101314.22;5063233;28;20473;-48
2021/12/22 03:40:35;;;;;;;0.20;0.10;;;;;;;-6.06;99.40;101310.00;5050656;28;20449;-48
2021/12/22 03:43:02;;;;;;;0.10;0.10;;;;;;;-6.19;99.71;101316.19;5066685;28;21074;-48
2021/12/22 03:45:28;;;;;;;0.10;0.10;;;;;;;-6.34;99.26;101316.25;5061294;28;20484;-50
2021/12/22 03:47:55;;;;;;;0.20;0.10;;;;;;;-6.47;100.00;101310.31;5058420;28;20986;-48
2021/12/22 03:50:22;;;;;;;0.20;0.10;;;;;;;-6.21;100.00;101315.22;5062009;28;20450;-48
2021/12/22 03:52:49;;;;;;;0.20;0.20;;;;;;;-6.22;99.69;101317.75;5066339;28;20509;-49
2021/12/22 03:55:16;;;;;;;0.20;0.10;;;;;;;-6.42;99.46;101317.53;5065855;28;20992;-48
2021/12/22 03:57:42;;;;;;;0.20;0.10;;;;;;;-6.32;100.00;101324.97;5072220;22;20878;-57
2021/12/22 04:00:12;;;;;;;0.10;0.10;;;;;;;-6.18;100.00;101323.16;5053584;28;20490;-57
2021/12/22 04:02:39;;;;;;;0.20;0.10;;;;;;;-6.40;99.31;101315.03;5050305;28;20490;-57
2021/12/22 04:05:06;;;;;;;0.20;0.10;;;;;;;-6.47;100.00;101313.78;5046180;28;20446;-57
2021/12/22 04:07:33;;;;;;;0.17;0.10;;;;;;;-6.46;100.00;101309.50;5055199;28;20470;-56
2021/12/22 04:10:09;;;;;;;0.20;0.10;;;;;;;-6.33;100.00;101305.09;5054866;28;20446;-56
2021/12/22 04:12:35;;;;;;;0.20;0.10;;;;;;;-6.51;100.00;101300.59;5054812;28;20439;-55
2021/12/22 04:15:02;;;;;;;0.20;0.10;;;;;;;-6.44;100.00;101293.28;5055051;28;20451;-56
2021/12/22 04:17:29;;;;;;;0.20;0.20;;;;;;;-6.46;99.90;101300.03;5054783;28;20895;-56
2021/12/22 04:19:56;;;;;;;0.20;0.10;;;;;;;-6.51;100.00;101304.09;5054635;28;20545;-56
2021/12/22 04:22:23;;;;;;;0.10;0.10;;;;;;;-6.53;100.00;101303.13;5054504;28;20544;-56
2021/12/22 04:24:50;;;;;;;0.30;0.30;;;;;;;-6.33;100.00;101314.56;5054684;28;20485;-56
2021/12/22 04:27:17;;;;;;;0.10;0.10;;;;;;;-6.47;100.00;101313.78;5054369;28;20521;-56
2021/12/22 04:29:43;;;;;;;0.20;0.10;;;;;;;-6.65;100.00;101311.06;5054601;28;20826;-56
2021/12/22 04:32:10;;;;;;;0.20;0.20;;;;;;;-6.46;100.00;101305.22;5041475;28;20452;-56
2021/12/22 04:34:36;;;;;;;0.10;0.10;;;;;;;-6.37;100.00;101305.75;5054468;28;20450;-55
2021/12/22 04:37:04;;;;;;;0.20;0.10;;;;;;;-6.42;99.90;101307.19;5054413;28;20467;-56
2021/12/22 04:39:32;;;;;;;0.40;0.40;;;;;;;-6.61;99.94;101309.53;5054223;28;20450;-55
2021/12/22 04:42:00;;;;;;;0.10;0.10;;;;;;;-6.52;100.00;101310.06;5054295;28;20463;-56
2021/12/22 04:44:27;;;;;;;0.20;0.10;;;;;;;-6.46;100.00;101310.38;5054539;28;20446;-56
2021/12/22 04:46:53;;;;;;;0.10;0.10;;;;;;;-6.36;100.00;101304.03;5054351;28;20451;-57
2021/12/22 04:49:20;;;;;;;0.10;0.10;;;;;;;-6.35;99.31;101300.66;5054199;28;20520;-56
2021/12/22 04:51:52;;;;;;;0.20;0.10;;;;;;;-6.48;99.12;101303.34;5053060;28;20874;-56
2021/12/22 04:55:05;;;;;;;0.10;0.10;;;;;;;-6.66;99.29;101292.88;5052952;28;20485;-56
2021/12/22 04:57:06;;;;;;;0.20;0.20;;;;;;;-6.59;98.75;101293.31;5043566;28;20547;-55
2021/12/22 04:59:33;;;;;;;0.20;0.13;;;;;;;-6.28;99.59;101289.84;5054214;28;20450;-56
2021/12/22 05:01:59;;;;;;;0.20;0.20;;;;;;;-6.39;96.99;101294.44;5052547;28;20450;-56
2021/12/22 05:04:26;;;;;;;0.73;0.73;;;;;;;-6.67;98.39;101302.34;5053376;28;20513;-56
2021/12/22 05:06:53;;;;;;;0.10;0.10;;;;;;;-6.51;99.07;101303.19;5053667;28;20451;-56
2021/12/22 05:09:19;;;;;;;0.10;0.10;;;;;;;-6.67;98.57;101304.91;5054000;28;20451;-55
2021/12/22 05:11:46;;;;;;;0.10;0.10;;;;;;;-6.66;99.51;101309.28;5054004;28;20841;-56
2021/12/22 05:14:13;;;;;;;0.10;0.10;;;;;;;-6.67;99.43;101302.34;5053784;28;20526;-56
2021/12/22 05:16:45;;;;;;;0.10;0.10;;;;;;;-6.72;99.03;101306.34;5053690;28;20447;-56
2021/12/22 05:19:16;;;;;;;0.63;0.63;;;;;;;-6.74;99.37;101310.53;5053379;28;20479;-56
2021/12/22 05:21:44;;;;;;;0.13;0.10;;;;;;;-6.78;99.46;101313.75;5053781;28;20796;-56
2021/12/22 05:24:11;;;;;;;0.10;0.10;;;;;;;-6.62;99.91;101310.34;5053304;28;21005;-56
2021/12/22 05:26:38;;;;;;;0.10;0.10;;;;;;;-6.65;100.00;101308.47;5052225;28;20451;-56
2021/12/22 05:29:04;;;;;;;0.10;0.10;;;;;;;-6.52;99.37;101302.31;5053602;28;20882;-57
2021/12/22 05:31:31;;;;;;;0.10;0.10;;;;;;;-6.62;99.29;101300.88;5053327;28;20454;-56
2021/12/22 05:33:58;;;;;;;0.10;0.10;;;;;;;-6.64;99.27;101304.19;5053295;28;20504;-56
2021/12/22 05:36:24;;;;;;;0.20;0.10;;;;;;;-6.68;99.07;101297.09;5053368;28;20451;-56
2021/12/22 05:38:51;;;;;;;0.10;0.10;;;;;;;-6.67;98.85;101297.16;5053199;28;20524;-56
2021/12/22 05:41:18;;;;;;;0.10;0.10;;;;;;;-6.74;98.38;101300.19;5050938;28;20464;-56
2021/12/22 05:43:45;;;;;;;0.10;0.10;;;;;;;-6.46;98.56;101301.75;5051955;28;20498;-55
2021/12/22 05:46:12;;;;;;;0.10;0.10;;;;;;;-6.68;98.69;101297.97;5053194;28;20447;-56
2021/12/22 05:48:38;;;;;;;0.10;0.10;;;;;;;-6.53;98.72;101305.69;5052956;28;20493;-56
2021/12/22 05:51:05;;;;;;;0.10;0.10;;;;;;;-6.49;98.33;101311.94;5053049;28;20459;-56
2021/12/22 05:53:32;;;;;;;0.10;0.10;;;;;;;-6.47;98.97;101311.19;5052824;28;20973;-56
2021/12/22 05:55:59;;;;;;;0.10;0.10;;;;;;;-6.43;98.44;101312.28;5053019;28;20451;-56
2021/12/22 05:58:27;;;;;;;0.10;0.10;;;;;;;-6.71;97.67;101312.44;5052846;28;20478;-56
2021/12/22 06:00:54;;;;;;;0.10;0.10;;;;;;;-6.73;98.13;101314.91;5052724;28;20820;-56
2021/12/22 06:03:21;;;;;;;0.10;0.10;;;;;;;-6.76;99.00;101316.41;5052803;28;20490;-56
2021/12/22 06:05:47;;;;;;;0.10;0.10;;;;;;;-6.49;99.12;101320.56;5052744;28;20876;-56
2021/12/22 06:08:14;;;;;;;0.10;0.10;;;;;;;-6.38;98.65;101332.41;5052718;28;20810;-56
2021/12/22 06:10:41;;;;;;;0.10;0.10;;;;;;;-6.27;98.86;101333.00;5052983;28;20443;-56
2021/12/22 06:13:09;;;;;;;0.10;0.10;;;;;;;-6.30;98.84;101331.16;5052651;28;20518;-58
2021/12/22 06:15:38;;;;;;;0.10;0.10;;;;;;;-6.36;98.12;101335.97;5051666;28;20455;-56
2021/12/22 06:18:05;;;;;;;0.20;0.10;;;;;;;-6.35;97.73;101332.56;5052425;28;20466;-56
2021/12/22 06:20:33;;;;;;;0.10;0.10;;;;;;;-6.33;98.01;101333.53;5052521;28;20451;-56
2021/12/22 06:22:59;;;;;;;0.10;0.10;;;;;;;-6.48;97.73;101329.22;5052521;28;20604;-56
2021/12/22 06:25:26;;;;;;;0.10;0.10;;;;;;;-6.18;98.13;101330.03;5052477;28;20481;-56
2021/12/22 06:27:53;;;;;;;0.10;0.10;;;;;;;-6.50;97.14;101331.72;5052271;28;20470;-56
2021/12/22 06:30:21;;;;;;;0.10;0.10;;;;;;;-6.53;97.95;101338.41;5052250;28;20451;-56
2021/12/22 06:32:48;;;;;;;0.10;0.10;;;;;;;-6.59;97.97;101337.25;5052297;28;20439;-56
2021/12/22 06:35:15;;;;;;;0.10;0.10;;;;;;;-6.03;96.75;101330.84;5052311;28;20454;-56
2021/12/22 06:37:43;;;;;;;0.20;0.20;;;;;;;-6.49;97.51;101343.84;5052267;28;20467;-56
2021/12/22 06:40:11;;;;;;;0.10;0.10;;;;;;;-6.50;97.95;101339.47;5052109;28;20451;-56
2021/12/22 06:42:39;;;;;;;0.10;0.10;;;;;;;-6.62;98.68;101349.13;5050277;28;20556;-56
2021/12/22 06:45:11;;;;;;;0.17;0.10;;;;;;;-6.50;98.59;101348.94;5039359;28;20822;-56
2021/12/22 06:47:38;;;;;;;0.20;0.10;;;;;;;-6.60;98.21;101355.25;5052498;28;20463;-56
2021/12/22 06:50:06;;;;;;;0.20;0.20;;;;;;;-6.66;98.70;101357.50;5052526;28;20482;-56
2021/12/22 06:52:33;;;;;;;0.10;0.10;;;;;;;-6.74;99.43;101356.16;5051404;28;20446;-56
2021/12/22 06:55:00;;;;;;;0.10;0.10;;;;;;;-6.72;99.44;101345.09;5052499;28;20446;-56
2021/12/22 06:57:29;;;;;;;0.10;0.10;;;;;;;-6.13;99.79;101345.00;5052165;28;20479;-56
2021/12/22 06:59:58;;;;;;;0.10;0.10;;;;;;;-5.34;98.65;101339.69;5051939;28;20964;-57
2021/12/22 07:02:26;;;;;;;0.10;0.10;;;;;;;-6.24;98.18;101353.88;5050930;28;20867;-56
2021/12/22 07:04:53;;;;;;;0.20;0.10;;;;;;;-6.56;98.07;101354.66;5052116;28;20916;-56
2021/12/22 07:07:19;;;;;;;0.20;0.10;;;;;;;-6.63;98.30;101352.50;5051912;28;20810;-56
2021/12/22 07:09:46;;;;;;;0.10;0.10;;;;;;;-6.72;98.41;101362.31;5052032;28;20476;-56
2021/12/22 07:12:13;;;;;;;0.20;0.10;;;;;;;-6.65;99.22;101364.47;5052018;28;20465;-56
2021/12/22 07:14:39;;;;;;;0.10;0.10;;;;;;;-6.64;99.06;101361.06;5050851;28;20509;-56
2021/12/22 07:17:07;;;;;;;0.10;0.10;;;;;;;-6.65;98.81;101359.28;5051977;28;20524;-56
2021/12/22 07:19:34;;;;;;;0.10;0.10;;;;;;;-6.72;98.61;101360.63;5051945;28;20447;-56
2021/12/22 07:22:01;;;;;;;0.10;0.10;;;;;;;-6.62;99.80;101357.75;5051881;28;20447;-56
2021/12/22 07:24:27;;;;;;;0.10;0.10;;;;;;;-6.69;98.92;101371.16;5051786;28;20559;-56
2021/12/22 07:26:54;;;;;;;0.10;0.10;;;;;;;-6.68;99.28;101367.75;5052894;28;20500;-56
2021/12/22 07:29:20;;;;;;;0.10;0.10;;;;;;;-6.56;98.78;101377.91;5055647;28;20568;-56
2021/12/22 07:31:47;;;;;;;0.10;0.10;;;;;;;-6.58;98.60;101379.50;5055554;28;20541;-56
2021/12/22 07:34:24;;;;;;;0.10;0.10;;;;;;;-6.72;98.11;101372.66;5055741;28;20527;-56
2021/12/22 07:37:04;;;;;;;0.10;0.10;;;;;;;-6.68;99.61;101382.38;5055011;28;20453;-55
2021/12/22 07:39:31;;;;;;;0.10;0.10;;;;;;;-6.68;99.88;101385.84;5055338;28;20442;-56
2021/12/22 07:41:57;;;;;;;0.10;0.10;;;;;;;-6.56;100.00;101383.09;5055495;28;20516;-56
2021/12/22 07:44:24;;;;;;;0.10;0.10;;;;;;;-6.58;100.00;101380.44;5055146;28;20548;-56
2021/12/22 07:46:51;;;;;;;0.10;0.10;;;;;;;-6.56;99.88;101377.91;5055370;28;20450;-56
2021/12/22 07:49:18;;;;;;;0.20;0.20;;;;;;;-6.53;99.87;101372.03;5055084;28;20511;-56
2021/12/22 07:51:44;;;;;;;0.10;0.10;;;;;;;-6.29;99.39;101366.56;5055419;28;20496;-56
2021/12/22 07:54:11;;;;;;;0.10;0.10;;;;;;;-6.27;99.37;101372.69;5055497;28;20446;-56
2021/12/22 07:56:37;;;;;;;0.10;0.10;;;;;;;-6.31;100.00;101360.38;5055220;28;20513;-55
2021/12/22 07:59:04;;;;;;;0.10;0.10;;;;;;;-6.16;100.00;101362.97;5054974;28;20970;-56
2021/12/22 08:01:32;;;;;;;0.20;0.20;;;;;;;-6.10;99.71;101365.88;5055016;28;20460;-56
2021/12/22 08:04:00;;;;;;;0.20;0.10;;;;;;;-6.13;99.74;101362.22;5054743;28;20491;-56
2021/12/22 08:06:27;;;;;;;0.10;0.10;;;;;;;-6.07;99.22;101362.56;5055235;28;20451;-56
2021/12/22 08:08:53;;;;;;;0.20;0.10;;;;;;;-6.01;99.23;101363.81;5054982;28;20466;-56
2021/12/22 08:11:20;;;;;;;0.10;0.10;;;;;;;-5.87;99.32;101361.03;5054788;28;20508;-56
2021/12/22 08:13:47;;;;;;;0.20;0.10;;;;;;;-5.80;99.71;101363.13;5054901;28;20995;-56
2021/12/22 08:16:14;;;;;;;0.10;0.10;;;;;;;-5.72;100.00;101357.59;5054801;28;20485;-56
2021/12/22 08:18:41;;;;;;;0.10;0.10;;;;;;;-5.68;100.00;101351.75;5054651;28;20463;-56
2021/12/22 08:21:08;;;;;;;0.20;0.10;;;;;;;-5.63;100.00;101351.09;5054846;28;20447;-56
2021/12/22 08:23:37;;;;;;;0.20;0.20;;;;;;;-5.68;99.41;101345.69;5054468;28;20494;-56
2021/12/22 08:26:04;;;;;;;0.10;0.10;;;;;;;-5.54;100.00;101347.31;5054695;28;20544;-56
2021/12/22 08:28:31;;;;;;;1.23;1.20;;;;;;;-5.49;100.00;101357.91;5054291;28;20479;-56
2021/12/22 08:30:57;;;;;;;0.20;0.10;;;;;;;-5.12;100.00;101363.31;5054545;28;20505;-56
2021/12/22 08:33:29;;;;;;;0.20;0.10;;;;;;;-4.99;100.00;101357.06;5054708;28;20483;-56
2021/12/22 08:38:53;;;;;;;0.20;0.10;;;;;;;-4.72;100.00;101362.75;5041096;28;20583;-56
2021/12/22 08:41:32;;;;;;;0.20;0.10;;;;;;;-4.69;99.78;101361.19;5054233;28;20458;-56
2021/12/22 08:44:02;;;;;;;0.60;0.60;;;;;;;-4.64;100.00;101364.91;5054413;28;20486;-56
2021/12/22 08:46:30;;;;;;;0.20;0.10;;;;;;;-4.53;100.00;101360.22;5054185;28;20442;-55
2021/12/22 08:48:58;;;;;;;0.20;0.10;;;;;;;-4.54;100.00;101358.44;5054315;28;20478;-56
2021/12/22 08:51:24;;;;;;;0.20;0.10;;;;;;;-4.48;100.00;101358.78;5054157;28;20505;-56
2021/12/22 08:53:52;;;;;;;0.20;0.10;;;;;;;-4.63;100.00;101353.72;5054022;28;20443;-56
2021/12/22 08:56:20;;;;;;;0.20;0.10;;;;;;;-4.63;100.00;101342.47;5054198;28;20477;-56
2021/12/22 08:58:47;;;;;;;0.20;0.10;;;;;;;-4.61;100.00;101344.31;5053765;28;20563;-56
2021/12/22 09:01:14;;;;;;;0.20;0.10;;;;;;;-4.54;100.00;101350.66;5053785;28;20447;-56
2021/12/22 09:03:41;;;;;;;0.20;0.20;;;;;;;-4.56;100.00;101350.59;5053980;28;20488;-56
2021/12/22 09:06:08;;;;;;;0.33;0.33;;;;;;;-4.49;100.00;101346.63;5053736;28;20455;-56
2021/12/22 09:08:35;;;;;;;0.20;0.10;;;;;;;-4.29;100.00;101350.16;5052475;28;20524;-56
2021/12/22 09:11:01;;;;;;;0.20;0.10;;;;;;;-4.29;100.00;101343.25;5053866;28;20481;-56
2021/12/22 09:13:28;;;;;;;0.20;0.20;;;;;;;-4.33;100.00;101343.06;5053419;28;20880;-56
2021/12/22 09:15:55;;;;;;;4.23;2.77;;;;;;;-4.21;100.00;101348.84;5053602;28;20528;-56
2021/12/22 09:18:21;;;;;;;0.30;0.30;;;;;;;-4.08;100.00;101337.34;5053698;28;20467;-56
2021/12/22 09:20:48;;;;;;;0.20;0.10;;;;;;;-3.96;100.00;101338.78;5053621;28;20462;-56
2021/12/22 09:23:15;;;;;;;0.20;0.10;;;;;;;-3.91;100.00;101339.00;5053452;28;20450;-56
2021/12/22 09:25:42;;;;;;;0.20;0.10;;;;;;;-3.97;100.00;101336.13;5053896;28;20447;-56
2021/12/22 09:28:10;;;;;;;0.20;0.10;;;;;;;-4.08;100.00;101333.03;5053386;28;20466;-56
2021/12/22 09:30:38;;;;;;;0.20;0.10;;;;;;;-4.03;100.00;101335.81;5053426;28;20454;-56
2021/12/22 09:33:07;;;;;;;0.20;0.10;;;;;;;-3.95;100.00;101332.78;5053526;28;20840;-56
2021/12/22 09:35:34;;;;;;;0.20;0.10;;;;;;;-3.85;100.00;101338.38;5041645;28;20864;-56
2021/12/22 09:38:01;;;;;;;0.20;0.10;;;;;;;-3.79;100.00;101336.09;5053308;28;20478;-57
2021/12/22 09:40:28;;;;;;;0.20;0.10;;;;;;;-3.82;100.00;101338.53;5053535;28;20451;-56
2021/12/22 09:42:55;;;;;;;0.20;0.10;;;;;;;-3.65;100.00;101324.63;5053180;28;20520;-56
2021/12/22 09:45:24;;;;;;;0.30;0.30;;;;;;;-3.75;100.00;101319.81;5052987;28;20482;-56
2021/12/22 09:48:21;;;;;;;0.20;0.10;;;;;;;-3.61;100.00;101324.81;5052814;28;20467;-56
2021/12/22 09:50:55;;;;;;;5.40;4.80;;;;;;;-3.61;100.00;101317.00;5052930;28;20450;-56
2021/12/22 09:53:24;;;;;;;0.20;0.10;;;;;;;-3.62;100.00;101320.44;5053144;28;20509;-56
2021/12/22 09:55:52;;;;;;;0.20;0.10;;;;;;;-3.59;100.00;101320.56;5053371;28;20455;-56
2021/12/22 09:58:19;;;;;;;0.20;0.10;;;;;;;-3.42;100.00;101320.44;5053479;28;20501;-53
2021/12/22 10:00:48;;;;;;;0.67;0.63;;;;;;;-3.38;100.00;101309.34;5052888;28;20482;-53
2021/12/22 10:03:15;;;;;;;0.20;0.10;;;;;;;-3.32;100.00;101314.81;5053110;28;20508;-53
2021/12/22 10:05:45;;;;;;;0.20;0.10;;;;;;;-3.46;100.00;101314.22;5052865;28;20451;-53
2021/12/22 10:08:20;;;;;;;0.20;0.10;;;;;;;-3.35;100.00;101306.88;5052860;28;21033;-53
2021/12/22 10:10:48;;;;;;;0.20;0.10;;;;;;;-3.53;100.00;101303.50;5052898;28;20955;-52
2021/12/22 10:13:18;;;;;;;0.20;0.10;;;;;;;-3.33;100.00;101316.53;5052680;28;20818;-53
2021/12/22 10:15:46;;;;;;;1.27;0.77;;;;;;;-3.08;100.00;101309.78;5052698;28;20493;-53
2021/12/22 10:18:20;;;;;;;0.20;0.10;;;;;;;-3.14;100.00;101314.75;5052844;28;20806;-53
2021/12/22 10:20:50;;;;;;;0.20;0.10;;;;;;;-2.95;100.00;101304.28;5052739;28;20458;-53
2021/12/22 10:23:23;;;;;;;0.10;0.10;;;;;;;-2.72;100.00;101307.84;5052253;28;20447;-53
2021/12/22 10:25:51;;;;;;;0.20;0.10;;;;;;;-2.70;100.00;101290.59;5040534;28;20451;-53
2021/12/22 10:28:19;;;;;;;0.20;0.10;;;;;;;-2.74;100.00;101289.59;5052444;28;20471;-53
2021/12/22 10:30:48;;;;;;;0.20;0.10;;;;;;;-2.50;100.00;101287.06;5052364;28;21005;-53
2021/12/22 10:33:18;;;;;;;0.20;0.10;;;;;;;-2.42;100.00;101282.19;5052261;28;21034;-53
2021/12/22 10:35:47;;;;;;;1.80;1.60;;;;;;;-2.23;100.00;101289.88;5052340;28;20864;-52
2021/12/22 10:38:17;;;;;;;0.20;0.10;;;;;;;-2.40;100.00;101276.19;5051131;28;20516;-52
2021/12/22 10:40:47;;;;;;;0.20;0.10;;;;;;;-2.67;100.00;101279.41;5052343;28;20454;-52
2021/12/22 10:43:16;;;;;;;0.20;0.10;;;;;;;-2.62;100.00;101272.66;5050636;28;20504;-52
2021/12/22 10:45:46;;;;;;;0.20;0.10;;;;;;;-2.74;100.00;101266.16;5052287;28;20951;-53
2021/12/22 10:50:59;;;;;;;0.20;0.10;;;;;;;-2.61;100.00;101266.63;5052577;28;20888;-52
2021/12/22 10:53:26;;;;;;;0.20;0.10;;;;;;;-1.91;100.00;101256.38;5052525;28;20446;-53
2021/12/22 10:55:56;;;;;;;0.20;0.10;;;;;;;-2.12;100.00;101256.44;5052139;28;20455;-52
2021/12/22 10:58:34;;;;;;;0.20;0.10;;;;;;;-1.73;100.00;101251.81;5052163;28;20532;-52
2021/12/22 11:01:12;;;;;;;0.20;0.10;;;;;;;-2.17;100.00;101247.56;5052007;28;20450;-52
2021/12/22 11:03:41;;;;;;;0.20;0.10;;;;;;;-2.11;100.00;101246.06;5055209;28;20465;-52
2021/12/22 11:06:29;;;;;;;0.20;0.10;;;;;;;-2.18;100.00;101245.81;5056124;28;20537;-53
2021/12/22 11:09:14;;;;;;;0.20;0.10;;;;;;;-2.28;100.00;101234.13;5056037;28;20527;-52
2021/12/22 11:11:41;;;;;;;0.20;0.10;;;;;;;-2.27;100.00;101230.72;5056044;28;20439;-53
2021/12/22 11:14:13;;;;;;;0.87;0.87;;;;;;;-2.07;100.00;101223.63;5055724;28;20442;-53
2021/12/22 11:16:58;;;;;;;0.20;0.10;;;;;;;-2.18;100.00;101220.66;5055875;28;20454;-53
2021/12/22 11:19:28;;;;;;;0.20;0.10;;;;;;;-2.17;100.00;101217.22;5044819;28;20533;-52
2021/12/22 11:22:14;;;;;;;0.20;0.10;;;;;;;-2.18;100.00;101220.66;5055752;28;20846;-53
2021/12/22 11:24:43;;;;;;;0.20;0.10;;;;;;;-1.98;100.00;101221.38;5055615;28;20828;-53
2021/12/22 11:27:16;;;;;;;0.20;0.10;;;;;;;-2.06;100.00;101220.19;5055706;28;20462;-52
2021/12/22 11:29:48;;;;;;;0.20;0.10;;;;;;;-2.21;100.00;101220.50;5055560;28;20451;-53
2021/12/22 11:32:17;;;;;;;0.20;0.10;;;;;;;-2.26;100.00;101221.19;5043382;28;20943;-54
2021/12/22 11:34:53;;;;;;;0.20;0.10;;;;;;;-2.38;100.00;101217.28;5055618;28;20447;-52
2021/12/22 11:37:21;;;;;;;0.20;0.10;;;;;;;-2.31;100.00;101209.72;5055602;28;20841;-52
2021/12/22 11:39:48;;;;;;;0.20;0.10;;;;;;;-2.20;100.00;101211.88;5055165;28;20455;-52
2021/12/22 11:42:15;;;;;;;0.20;0.20;;;;;;;-2.06;100.00;101214.09;5055688;28;20466;-53
2021/12/22 11:44:48;;;;;;;0.40;0.40;;;;;;;-2.04;100.00;101207.25;5055013;28;20539;-53
2021/12/22 11:47:16;;;;;;;0.20;0.10;;;;;;;-1.97;100.00;101199.72;5055834;28;20874;-53